createdAt,value
2023-06-10T00:01:35.353Z,8.60
2023-06-10T00:04:05.584Z,8.60
2023-06-10T00:06:37.804Z,8.30
2023-06-10T00:09:08.700Z,8.90
2023-06-10T00:11:37.206Z,9.03
2023-06-10T00:14:06.973Z,8.10
2023-06-10T00:16:40.381Z,9.13
2023-06-10T00:19:09.407Z,9.57
2023-06-10T00:21:41.712Z,9.03
2023-06-10T00:24:13.270Z,9.70
2023-06-10T00:26:44.131Z,9.20
2023-06-10T00:29:16.898Z,8.87
2023-06-10T00:31:48.033Z,9.03
2023-06-10T00:34:19.051Z,8.30
2023-06-10T00:36:50.617Z,8.90
2023-06-10T00:39:18.893Z,9.17
2023-06-10T00:41:50.633Z,8.97
2023-06-10T00:44:19.032Z,9.53
2023-06-10T00:46:47.853Z,9.40
2023-06-10T00:49:18.918Z,9.53
2023-06-10T00:51:49.288Z,9.33
2023-06-10T00:54:21.108Z,9.77
2023-06-10T00:56:56.351Z,9.33
2023-06-10T00:59:27.054Z,10.53
2023-06-10T01:04:46.099Z,9.70
2023-06-10T01:07:33.719Z,10.00
2023-06-10T01:10:07.811Z,9.70
2023-06-10T01:16:13.104Z,10.07
2023-06-10T01:18:45.686Z,10.82
2023-06-10T01:21:26.208Z,9.77
2023-06-10T01:23:57.960Z,10.20
2023-06-10T01:26:32.638Z,10.33
2023-06-10T01:29:08.499Z,9.47
2023-06-10T01:31:47.092Z,9.77
2023-06-10T01:34:19.813Z,10.50
2023-06-10T01:36:52.180Z,10.00
2023-06-10T01:39:23.352Z,9.90
2023-06-10T01:41:51.999Z,9.60
2023-06-10T01:44:24.102Z,10.23
2023-06-10T01:46:53.713Z,10.43
2023-06-10T01:49:25.291Z,10.10
2023-06-10T01:51:56.953Z,9.47
2023-06-10T01:54:35.665Z,10.00
2023-06-10T01:57:04.227Z,9.83
2023-06-10T01:59:32.366Z,10.10
2023-06-10T02:02:01.686Z,10.10
2023-06-10T02:04:29.998Z,10.67
2023-06-10T02:07:05.985Z,11.03
2023-06-10T02:09:36.561Z,10.43
2023-06-10T02:12:07.311Z,10.13
2023-06-10T02:14:42.200Z,11.20
2023-06-10T02:17:13.755Z,10.27
2023-06-10T02:19:44.228Z,9.90
2023-06-10T02:22:14.975Z,9.80
2023-06-10T02:25:18.989Z,9.93
2023-06-10T02:27:48.351Z,10.47
2023-06-10T02:30:16.839Z,9.97
2023-06-10T02:32:49.701Z,10.50
2023-06-10T02:35:21.596Z,10.57
2023-06-10T02:37:59.647Z,9.97
2023-06-10T02:40:29.269Z,10.20
2023-06-10T02:42:58.660Z,10.07
2023-06-10T02:45:26.985Z,10.30
2023-06-10T02:47:57.536Z,10.27
2023-06-10T02:50:39.993Z,9.70
2023-06-10T02:53:31.036Z,10.33
2023-06-10T02:56:00.285Z,10.60
2023-06-10T02:58:29.548Z,10.70
2023-06-10T03:01:00.062Z,9.93
2023-06-10T03:03:34.382Z,9.63
2023-06-10T03:06:06.829Z,9.43
2023-06-10T03:08:37.884Z,9.40
2023-06-10T03:11:06.096Z,9.07
2023-06-10T03:13:37.415Z,9.43
2023-06-10T03:16:07.095Z,9.03
2023-06-10T03:18:35.404Z,9.50
2023-06-10T03:21:07.608Z,9.37
2023-06-10T03:23:37.233Z,8.93
2023-06-10T03:26:07.247Z,9.57
2023-06-10T03:28:37.955Z,9.50
2023-06-10T03:31:06.262Z,9.50
2023-06-10T03:33:37.006Z,9.37
2023-06-10T03:36:05.707Z,9.50
2023-06-10T03:38:35.324Z,9.40
2023-06-10T03:41:06.026Z,10.60
2023-06-10T03:43:35.016Z,11.20
2023-06-10T03:46:04.847Z,10.40
2023-06-10T03:48:34.257Z,9.87
2023-06-10T03:51:05.222Z,9.50
2023-06-10T03:53:41.098Z,9.73
2023-06-10T03:56:10.732Z,9.90
2023-06-10T03:58:44.646Z,9.70
2023-06-10T04:01:19.081Z,9.70
2023-06-10T04:03:51.743Z,9.20
2023-06-10T04:06:26.638Z,9.07
2023-06-10T04:08:57.939Z,9.47
2023-06-10T04:11:28.819Z,9.63
2023-06-10T04:13:56.932Z,9.70
2023-06-10T04:16:27.627Z,9.73
2023-06-10T04:18:59.452Z,10.00
2023-06-10T04:21:32.003Z,9.33
2023-06-10T04:24:03.941Z,10.50
2023-06-10T04:26:40.002Z,9.57
2023-06-10T04:29:09.722Z,10.40
2023-06-10T04:31:41.339Z,9.97
2023-06-10T04:34:18.018Z,10.43
2023-06-10T04:36:50.157Z,9.60
2023-06-10T04:39:19.664Z,10.07
2023-06-10T04:41:50.709Z,9.80
2023-06-10T04:44:20.844Z,9.67
2023-06-10T04:46:53.365Z,9.77
2023-06-10T04:49:26.042Z,8.73
2023-06-10T04:52:05.266Z,9.10
2023-06-10T04:58:16.832Z,9.70
2023-06-10T05:00:48.222Z,9.30
2023-06-10T05:03:22.048Z,10.07
2023-06-10T05:05:50.927Z,9.27
2023-06-10T05:08:25.791Z,9.10
2023-06-10T05:10:54.101Z,9.43
2023-06-10T05:13:28.336Z,8.87
2023-06-10T05:16:03.459Z,9.17
2023-06-10T05:18:35.460Z,9.67
2023-06-10T05:21:06.052Z,8.87
2023-06-10T05:23:34.365Z,8.93
2023-06-10T05:26:52.117Z,8.53
2023-06-10T05:29:24.429Z,8.27
2023-06-10T05:32:00.441Z,8.63
2023-06-10T05:34:29.554Z,7.70
2023-06-10T05:37:01.694Z,7.83
2023-06-10T05:39:38.571Z,7.93
2023-06-10T05:42:11.699Z,7.60
2023-06-10T05:44:44.448Z,7.57
2023-06-10T05:47:15.053Z,7.50
2023-06-10T05:50:14.084Z,7.67
2023-06-10T05:53:04.564Z,7.97
2023-06-10T05:55:33.165Z,7.70
2023-06-10T05:58:03.359Z,8.40
2023-06-10T06:00:33.200Z,6.73
2023-06-10T06:03:02.564Z,6.30
2023-06-10T06:05:36.061Z,6.20
2023-06-10T06:08:05.129Z,7.00
2023-06-10T06:10:36.717Z,6.57
2023-06-10T06:13:06.144Z,7.17
2023-06-10T06:15:42.712Z,6.57
2023-06-10T06:18:27.262Z,6.43
2023-06-10T06:20:58.138Z,6.80
2023-06-10T06:23:40.781Z,6.53
2023-06-10T06:26:09.971Z,7.00
2023-06-10T06:28:41.770Z,6.20
2023-06-10T06:31:13.917Z,6.47
2023-06-10T06:33:45.769Z,5.60
2023-06-10T06:36:15.646Z,6.27
2023-06-10T06:38:50.207Z,5.93
2023-06-10T06:41:30.350Z,6.23
2023-06-10T06:43:59.858Z,6.37
2023-06-10T06:46:32.446Z,5.90
2023-06-10T06:49:00.690Z,4.63
2023-06-10T06:51:29.966Z,5.60
2023-06-10T06:54:00.978Z,5.10
2023-06-10T06:56:29.841Z,4.60
2023-06-10T06:59:17.088Z,5.07
2023-06-10T07:01:48.268Z,5.30
2023-06-10T07:04:17.790Z,4.63
2023-06-10T07:06:46.371Z,5.17
2023-06-10T07:09:14.664Z,4.67
2023-06-10T07:11:47.189Z,4.90
2023-06-10T07:14:18.550Z,4.70
2023-06-10T07:16:49.861Z,5.00
2023-06-10T07:19:18.454Z,4.47
2023-06-10T07:21:50.965Z,4.60
2023-06-10T07:24:22.693Z,4.73
2023-06-10T07:27:01.074Z,4.70
2023-06-10T07:29:34.367Z,5.77
2023-06-10T07:35:49.753Z,4.57
2023-06-10T07:39:10.470Z,5.00
2023-06-10T07:49:07.278Z,4.23
2023-06-10T07:55:05.437Z,4.73
2023-06-10T07:57:44.760Z,4.50
2023-06-10T08:00:42.377Z,4.67
2023-06-10T08:03:11.962Z,4.67
2023-06-10T08:06:18.505Z,4.83
2023-06-10T08:08:53.068Z,4.60
2023-06-10T08:11:48.763Z,5.53
2023-06-10T08:14:17.556Z,4.60
2023-06-10T08:17:01.962Z,4.13
2023-06-10T08:19:35.180Z,4.47
2023-06-10T08:22:03.597Z,4.50
2023-06-10T08:24:38.800Z,4.60
2023-06-10T08:27:08.320Z,4.80
2023-06-10T08:29:51.186Z,4.93
2023-06-10T08:33:19.111Z,4.80
2023-06-10T08:35:47.675Z,4.10
2023-06-10T08:42:27.265Z,4.63
2023-06-10T08:45:20.829Z,4.20
2023-06-10T08:48:08.540Z,4.63
2023-06-10T08:50:40.638Z,4.37
2023-06-10T08:53:15.365Z,4.60
2023-06-10T08:55:47.141Z,5.20
2023-06-10T08:58:25.139Z,4.27
2023-06-10T09:00:54.346Z,4.57
2023-06-10T09:03:38.436Z,4.80
2023-06-10T09:06:21.678Z,5.20
2023-06-10T09:09:10.989Z,4.90
2023-06-10T09:12:01.706Z,4.77
2023-06-10T09:14:45.276Z,4.73
2023-06-10T09:17:13.774Z,4.63
2023-06-10T09:19:56.789Z,4.45
2023-06-10T09:22:30.415Z,6.87
2023-06-10T09:25:12.225Z,5.30
2023-06-10T09:27:57.211Z,4.90
2023-06-10T09:30:30.866Z,4.63
2023-06-10T09:33:16.089Z,4.63
2023-06-10T09:36:17.842Z,4.60
2023-06-10T09:38:47.605Z,4.63
2023-06-10T09:48:55.721Z,4.67
2023-06-10T09:51:25.141Z,4.70
2023-06-10T09:53:54.835Z,4.87
2023-06-10T09:56:35.677Z,5.03
2023-06-10T09:59:07.662Z,4.73
2023-06-10T10:01:37.410Z,4.53
2023-06-10T10:04:08.370Z,4.83
2023-06-10T10:06:38.647Z,4.70
2023-06-10T10:09:08.733Z,4.73
2023-06-10T10:11:43.759Z,4.97
2023-06-10T10:14:18.780Z,4.40
2023-06-10T10:16:49.391Z,4.40
2023-06-10T10:19:28.737Z,4.43
2023-06-10T10:22:04.729Z,4.60
2023-06-10T10:24:39.786Z,4.10
2023-06-10T10:27:21.191Z,3.93
2023-06-10T10:29:54.317Z,3.33
2023-06-10T10:32:30.119Z,4.40
2023-06-10T10:35:11.443Z,4.30
2023-06-10T10:37:41.262Z,3.60
2023-06-10T10:44:13.489Z,4.23
2023-06-10T10:46:46.462Z,4.20
2023-06-10T10:49:16.461Z,4.40
2023-06-10T10:52:33.234Z,4.40
2023-06-10T10:55:14.967Z,4.03
2023-06-10T10:57:43.201Z,3.90
2023-06-10T11:00:12.761Z,4.13
2023-06-10T11:02:45.457Z,4.00
2023-06-10T11:05:16.233Z,3.73
2023-06-10T11:08:42.700Z,3.87
2023-06-10T11:11:23.643Z,3.77
2023-06-10T11:14:07.693Z,3.10
2023-06-10T11:16:42.826Z,3.30
2023-06-10T11:19:11.574Z,3.43
2023-06-10T11:22:03.951Z,3.20
2023-06-10T11:24:32.509Z,3.50
2023-06-10T11:27:24.229Z,3.10
2023-06-10T11:30:19.352Z,3.63
2023-06-10T11:32:52.879Z,3.73
2023-06-10T11:35:23.625Z,3.33
2023-06-10T11:37:52.140Z,3.57
2023-06-10T11:40:20.494Z,3.57
2023-06-10T11:50:13.793Z,3.20
2023-06-10T11:52:42.620Z,3.20
2023-06-10T11:55:11.667Z,3.93
2023-06-10T11:57:39.967Z,3.30
2023-06-10T12:00:10.816Z,3.00
2023-06-10T12:02:39.062Z,3.23
2023-06-10T12:05:18.592Z,3.57
2023-06-10T12:08:40.480Z,3.63
2023-06-10T12:11:09.959Z,3.03
2023-06-10T12:13:40.027Z,3.53
2023-06-10T12:16:13.904Z,3.37
2023-06-10T12:18:48.860Z,3.30
2023-06-10T12:21:22.517Z,3.40
2023-06-10T12:24:48.427Z,3.23
2023-06-10T12:27:17.873Z,3.30
2023-06-10T12:29:56.510Z,3.17
2023-06-10T12:32:42.728Z,3.30
2023-06-10T12:35:17.860Z,3.17
2023-06-10T12:38:03.312Z,3.23
2023-06-10T12:40:35.954Z,3.27
2023-06-10T12:43:06.531Z,3.23
2023-06-10T12:45:38.541Z,3.37
2023-06-10T12:48:30.184Z,3.40
2023-06-10T12:51:02.966Z,3.93
2023-06-10T12:53:48.190Z,3.13
2023-06-10T12:56:16.551Z,4.77
2023-06-10T13:04:55.189Z,3.20
2023-06-10T13:07:25.049Z,3.73
2023-06-10T13:09:55.621Z,3.57
2023-06-10T13:12:48.313Z,3.43
2023-06-10T13:15:19.281Z,3.13
2023-06-10T13:17:52.953Z,3.40
2023-06-10T13:20:25.864Z,3.77
2023-06-10T13:22:55.922Z,3.47
2023-06-10T13:25:27.570Z,3.80
2023-06-10T13:27:58.733Z,3.90
2023-06-10T13:30:58.762Z,3.83
2023-06-10T13:33:35.446Z,3.90
2023-06-10T13:36:08.022Z,3.87
2023-06-10T13:38:37.101Z,4.00
2023-06-10T13:41:07.300Z,3.60
2023-06-10T13:43:38.891Z,3.57
2023-06-10T13:46:11.752Z,4.20
2023-06-10T13:48:41.002Z,4.03
2023-06-10T13:51:13.796Z,4.50
2023-06-10T13:53:47.202Z,4.00
2023-06-10T13:56:17.624Z,3.93
2023-06-10T13:59:22.638Z,4.10
2023-06-10T14:01:54.377Z,3.90
2023-06-10T14:04:41.749Z,4.37
2023-06-10T14:07:36.273Z,3.90
2023-06-10T14:10:10.824Z,4.60
2023-06-10T14:12:49.116Z,5.00
2023-06-10T14:15:22.583Z,4.80
2023-06-10T14:17:53.171Z,4.27
2023-06-10T14:23:52.985Z,4.80
2023-06-10T14:26:23.998Z,4.97
2023-06-10T14:28:58.811Z,4.73
2023-06-10T14:31:40.505Z,4.87
2023-06-10T14:34:11.092Z,5.00
2023-06-10T14:36:41.145Z,5.20
2023-06-10T14:42:54.985Z,4.57
2023-06-10T14:45:24.516Z,4.83
2023-06-10T14:48:05.065Z,4.60
2023-06-10T14:50:34.534Z,5.10
2023-06-10T14:53:22.969Z,4.83
2023-06-10T14:55:53.085Z,4.73
2023-06-10T14:58:34.032Z,4.77
2023-06-10T15:01:03.947Z,4.67
2023-06-10T15:03:33.246Z,5.20
2023-06-10T15:06:03.035Z,4.57
2023-06-10T15:08:31.508Z,5.07
2023-06-10T15:11:03.025Z,4.97
2023-06-10T15:13:34.381Z,4.80
2023-06-10T15:16:07.625Z,4.57
2023-06-10T15:18:36.935Z,4.97
2023-06-10T15:21:05.527Z,5.20
2023-06-10T15:23:38.468Z,4.90
2023-06-10T15:26:08.708Z,4.93
2023-06-10T15:29:16.931Z,5.43
2023-06-10T15:31:52.353Z,5.30
2023-06-10T15:34:35.897Z,4.90
2023-06-10T15:37:04.352Z,5.10
2023-06-10T15:39:34.435Z,5.57
2023-06-10T15:42:07.046Z,5.20
2023-06-10T15:44:38.816Z,5.73
2023-06-10T15:47:48.971Z,5.43
2023-06-10T15:50:46.993Z,6.33
2023-06-10T15:53:45.172Z,7.50
2023-06-10T15:56:18.541Z,8.40
2023-06-10T16:02:43.406Z,9.13
2023-06-10T16:05:14.525Z,8.23
2023-06-10T16:07:46.416Z,7.67
2023-06-10T16:10:15.764Z,8.00
2023-06-10T16:12:47.466Z,7.87
2023-06-10T16:15:17.298Z,8.67
2023-06-10T16:17:50.186Z,7.20
2023-06-10T16:20:20.248Z,6.83
2023-06-10T16:22:49.524Z,6.90
2023-06-10T16:25:19.025Z,8.03
2023-06-10T16:27:54.519Z,7.93
2023-06-10T16:30:23.192Z,8.00
2023-06-10T16:32:57.837Z,7.20
2023-06-10T16:35:29.405Z,7.20
2023-06-10T16:38:00.795Z,8.07
2023-06-10T16:40:31.595Z,9.47
2023-06-10T16:43:08.326Z,8.03
2023-06-10T16:45:41.335Z,8.00
2023-06-10T16:51:40.809Z,8.77
2023-06-10T16:54:11.848Z,12.30
2023-06-10T17:00:00.581Z,7.97
2023-06-10T17:02:39.093Z,7.60
2023-06-10T17:05:13.372Z,9.23
2023-06-10T17:07:44.854Z,8.43
2023-06-10T17:10:17.327Z,8.03
2023-06-10T17:12:45.772Z,7.80
2023-06-10T17:15:18.494Z,7.60
2023-06-10T17:18:00.905Z,7.93
2023-06-10T17:20:31.827Z,7.43
2023-06-10T17:23:04.106Z,8.00
2023-06-10T17:25:36.593Z,8.20
2023-06-10T17:28:13.495Z,8.50
2023-06-10T17:30:43.110Z,7.53
2023-06-10T17:33:11.557Z,8.50
2023-06-10T17:35:43.536Z,8.50
2023-06-10T17:38:20.516Z,8.13
2023-06-10T17:40:50.215Z,8.60
2023-06-10T17:43:19.869Z,8.57
2023-06-10T17:48:56.671Z,10.53
2023-06-10T17:51:53.190Z,8.63
2023-06-10T17:54:27.323Z,8.10
2023-06-10T17:56:57.421Z,9.30
2023-06-10T17:59:26.857Z,11.23
2023-06-10T18:01:56.425Z,8.60
2023-06-10T18:04:24.922Z,8.73
2023-06-10T18:07:07.455Z,7.87
2023-06-10T18:10:10.796Z,7.63
2023-06-10T18:12:49.685Z,8.63
2023-06-10T18:15:22.739Z,8.60
2023-06-10T18:17:57.781Z,9.17
2023-06-10T18:20:26.532Z,8.50
2023-06-10T18:22:55.141Z,8.40
2023-06-10T18:25:25.354Z,8.10
2023-06-10T18:27:54.150Z,8.20
2023-06-10T18:30:29.589Z,8.83
2023-06-10T18:32:59.672Z,10.30
2023-06-10T18:35:28.386Z,45.27
2023-06-10T18:40:51.572Z,25.00
2023-06-10T18:43:19.931Z,53.80
2023-06-10T18:46:19.206Z,10.17
2023-06-10T18:48:50.329Z,9.90
2023-06-10T18:51:18.830Z,9.27
2023-06-10T18:53:49.763Z,10.10
2023-06-10T18:56:20.678Z,9.70
2023-06-10T18:58:50.935Z,9.27
2023-06-10T19:01:26.886Z,9.70
2023-06-10T19:03:58.969Z,11.73
2023-06-10T19:06:29.748Z,10.87
2023-06-10T19:12:17.866Z,9.60
2023-06-10T19:14:48.324Z,10.00
2023-06-10T19:17:18.691Z,9.83
2023-06-10T19:19:48.978Z,10.20
2023-06-10T19:22:17.178Z,9.80
2023-06-10T19:24:59.402Z,10.17
2023-06-10T19:27:30.061Z,10.60
2023-06-10T19:30:10.989Z,10.53
2023-06-10T19:32:55.162Z,10.83
2023-06-10T19:35:37.708Z,10.57
2023-06-10T19:38:24.327Z,10.20
2023-06-10T19:41:07.504Z,10.00
2023-06-10T19:43:40.622Z,9.50
2023-06-10T19:49:11.678Z,10.23
2023-06-10T19:51:43.858Z,9.80
2023-06-10T19:54:13.470Z,9.17
2023-06-10T19:56:43.433Z,9.97
2023-06-10T19:59:18.041Z,9.57
2023-06-10T20:01:48.629Z,10.23
2023-06-10T20:04:20.044Z,10.70
2023-06-10T20:06:52.933Z,10.87
2023-06-10T20:09:21.130Z,10.60
2023-06-10T20:11:51.249Z,10.40
2023-06-10T20:14:26.048Z,10.80
2023-06-10T20:17:16.944Z,10.47
2023-06-10T20:19:49.754Z,9.50
2023-06-10T20:24:53.745Z,10.30
2023-06-10T20:29:52.119Z,11.23
2023-06-10T20:32:25.396Z,11.57
2023-06-10T20:34:53.673Z,13.67
2023-06-10T20:37:25.924Z,13.57
2023-06-10T20:39:54.186Z,11.47
2023-06-10T20:42:25.535Z,11.60
2023-06-10T20:44:57.000Z,11.23
2023-06-10T20:47:32.540Z,11.93
2023-06-10T20:50:00.812Z,11.03
2023-06-10T20:52:37.689Z,8.60
2023-06-10T20:55:08.559Z,8.57
2023-06-10T20:57:42.156Z,7.83
2023-06-10T21:00:19.285Z,6.40
2023-06-10T21:02:49.850Z,6.57
2023-06-10T21:05:18.356Z,6.90
2023-06-10T21:07:48.947Z,8.27
2023-06-10T21:10:18.520Z,8.80
2023-06-10T21:12:47.403Z,7.53
2023-06-10T21:15:20.056Z,6.87
2023-06-10T21:17:49.831Z,7.17
2023-06-10T21:20:21.346Z,6.20
2023-06-10T21:22:49.860Z,5.97
2023-06-10T21:25:31.929Z,6.77
2023-06-10T21:28:20.107Z,6.37
2023-06-10T21:31:02.494Z,6.63
2023-06-10T21:33:36.048Z,7.37
2023-06-10T21:36:08.557Z,7.47
2023-06-10T21:39:05.239Z,8.70
2023-06-10T21:41:37.767Z,9.80
2023-06-10T21:44:08.432Z,10.30
2023-06-10T21:46:44.831Z,10.77
2023-06-10T21:49:17.804Z,8.80
2023-06-10T21:51:46.374Z,9.30
2023-06-10T21:54:26.268Z,9.60
2023-06-10T21:56:55.830Z,10.67
2023-06-10T21:59:46.888Z,10.60
2023-06-10T22:02:20.312Z,11.30
2023-06-10T22:05:01.491Z,10.27
2023-06-10T22:07:40.699Z,10.30
2023-06-10T22:10:09.705Z,9.90
2023-06-10T22:12:40.688Z,8.23
2023-06-10T22:15:17.040Z,7.10
2023-06-10T22:17:48.890Z,5.53
2023-06-10T22:20:26.123Z,5.77
2023-06-10T22:22:56.691Z,6.43
2023-06-10T22:25:28.899Z,5.90
2023-06-10T22:28:20.294Z,5.93
2023-06-10T22:34:22.519Z,6.50
2023-06-10T22:37:01.060Z,8.50
2023-06-10T22:39:42.835Z,9.77
2023-06-10T22:42:20.090Z,9.23
2023-06-10T22:44:59.763Z,8.87
2023-06-10T22:47:50.724Z,8.47
2023-06-10T22:50:22.953Z,7.40
2023-06-10T22:53:05.688Z,7.57
2023-06-10T22:55:38.095Z,6.37
2023-06-10T22:58:12.650Z,6.00
2023-06-10T23:00:54.700Z,5.93
2023-06-10T23:03:35.301Z,6.20
2023-06-10T23:06:13.500Z,7.07
2023-06-10T23:08:49.963Z,8.63
2023-06-10T23:11:33.507Z,9.13
2023-06-10T23:16:58.682Z,9.57
2023-06-10T23:19:31.487Z,8.87
2023-06-10T23:22:14.295Z,8.83
2023-06-10T23:24:53.099Z,8.23
2023-06-10T23:27:33.334Z,10.13
2023-06-10T23:30:18.095Z,10.00
2023-06-10T23:36:11.889Z,10.43
2023-06-10T23:38:53.825Z,10.70
2023-06-10T23:41:48.488Z,10.77
2023-06-10T23:44:22.520Z,11.50
2023-06-10T23:46:52.522Z,11.30
2023-06-10T23:50:05.371Z,11.50
2023-06-10T23:52:37.024Z,11.37
2023-06-10T23:55:48.860Z,10.57
2023-06-10T23:58:22.878Z,11.10
